Pied Piper — WDB8661 — position and weather

sailwx.info

Track history (hours):
 
Tides and Currents Weather Stations Pressure Air Temp Water Temp Dewpoint Dewpoint Depression Visibility Wind Speed Wind Dir Waves Ship Positions

Pied Piper

Owner: Cape & Islands Transport Inc., Falmouth, MA. More information available from US FCC via Universal Licensing System and Coast Guard Vessel Documentation Center.

Last reported at 2015-Jul-15 06:28 UTC. Time now 2015-Jul-30 08:18 UTC.
Position N 41°31' W 070°40'.
Warning: this ship's position is 15 days out of date.

Length 24 m; draft 2 m.

Type: Passenger vessel. MMSI: 366962380.

Date/timePositionNaut miles runAvg speedWind from/ knotsBaromVisibWave heightAir tempDewpointWater temp
2015-Jul-15 06:28N 41°31' W 070°40'0 0.0
2015-Jul-15 05:14N 41°31' W 070°40'0 0.4
2015-Jul-15 04:33N 41°31' W 070°41'0 0.0
2015-Jul-15 03:28N 41°31' W 070°41'1 0.3
2015-Jul-15 00:29N 41°32' W 070°42'4 0.9
2015-Jul-14 19:28N 41°32' W 070°36'10 9.3
2015-Jul-14 18:26N 41°23' W 070°31'1011.5
2015-Jul-14 17:33N 41°33' W 070°36'8 7.8
2015-Jul-14 16:34N 41°27' W 070°30'2 1.6
2015-Jul-14 15:33N 41°28' W 070°32'6 5.7
2015-Jul-14 14:32N 41°32' W 070°36'10 7.9
2015-Jul-14 13:18N 41°24' W 070°30'10 0.7
2015-Jul-13 22:12N 41°33' W 070°36'912.3
2015-Jul-13 21:29N 41°26' W 070°30'1 0.6
2015-Jul-13 20:33N 41°26' W 070°30'8 8.2
2015-Jul-13 19:33N 41°33' W 070°36'1010.0
2015-Jul-13 18:32N 41°23' W 070°31'1010.2
2015-Jul-13 17:32N 41°33' W 070°36'8 7.7
2015-Jul-13 16:33N 41°27' W 070°31'0 0.4
2015-Jul-13 15:33N 41°27' W 070°31'7 7.0
2015-Jul-13 14:33N 41°32' W 070°36'10 8.8
2015-Jul-13 13:24N 41°23' W 070°30'1012.2
2015-Jul-13 12:32N 41°33' W 070°36'0 0.0
2015-Jul-13 00:16N 41°33' W 070°36'912.2
2015-Jul-12 23:33N 41°26' W 070°30'0 0.2
2015-Jul-12 22:33N 41°26' W 070°30'8 5.5
2015-Jul-12 21:07N 41°32' W 070°36'7 4.3
2015-Jul-12 19:32N 41°27' W 070°31'7 7.7
2015-Jul-12 18:33N 41°33' W 070°36'10 9.3
2015-Jul-12 17:28N 41°23' W 070°31'1011.1
2015-Jul-12 16:33N 41°32' W 070°36'8 7.8
2015-Jul-12 15:33N 41°27' W 070°30'1 0.7
2015-Jul-12 14:33N 41°27' W 070°31'8 7.5
2015-Jul-12 13:33N 41°33' W 070°36'5 0.1
2015-Jul-10 19:20N 41°29' W 070°33'5 0.2
2015-Jul-09 22:09N 41°33' W 070°36'814.1
2015-Jul-09 21:33N 41°26' W 070°30'5 4.0
2015-Jul-09 20:19N 41°30' W 070°34'2 2.2
2015-Jul-09 19:33N 41°31' W 070°35'2 0.7
2015-Jul-09 17:06N 41°32' W 070°36'814.7
2015-Jul-09 16:33N 41°26' W 070°30'5 3.8
2015-Jul-09 15:17N 41°30' W 070°34'3 4.6
2015-Jul-09 14:33N 41°32' W 070°36'9 0.5
2015-Jul-08 21:29N 41°25' W 070°29'8 4.4
2015-Jul-08 19:33N 41°32' W 070°36'0 0.2
2015-Jul-08 17:07N 41°32' W 070°36'814.6
2015-Jul-08 16:33N 41°26' W 070°30'1 0.0
2015-Jul-07 21:33N 41°26' W 070°30'0 0.1
2015-Jul-07 20:33N 41°26' W 070°30'7 6.7
2015-Jul-07 19:31N 41°32' W 070°36'10 8.5
2015-Jul-07 18:23N 41°23' W 070°31'1012.4
2015-Jul-07 17:33N 41°33' W 070°36'  
Track history (hours):
 
Tides and Currents Weather Stations Pressure Air Temp Water Temp Dewpoint Dewpoint Depression Visibility Wind Speed Wind Dir Waves Ship Positions

Pied Piper

Owner: Cape & Islands Transport Inc., Falmouth, MA. More information available from US FCC via Universal Licensing System and Coast Guard Vessel Documentation Center.

Last reported at 2015-Jul-15 06:28 UTC. Time now 2015-Jul-30 08:18 UTC.
Position N 41°31' W 070°40'.
Warning: this ship's position is 15 days out of date.

Length 24 m; draft 2 m.

Type: Passenger vessel. MMSI: 366962380.

Date/timePositionNaut miles runAvg speedWind from/ knotsBaromVisibWave heightAir tempDewpointWater temp
2015-Jul-15 06:28N 41°31' W 070°40'0 0.0
2015-Jul-15 05:14N 41°31' W 070°40'0 0.4
2015-Jul-15 04:33N 41°31' W 070°41'0 0.0
2015-Jul-15 03:28N 41°31' W 070°41'1 0.3
2015-Jul-15 00:29N 41°32' W 070°42'4 0.9
2015-Jul-14 19:28N 41°32' W 070°36'10 9.3
2015-Jul-14 18:26N 41°23' W 070°31'1011.5
2015-Jul-14 17:33N 41°33' W 070°36'8 7.8
2015-Jul-14 16:34N 41°27' W 070°30'2 1.6
2015-Jul-14 15:33N 41°28' W 070°32'6 5.7
2015-Jul-14 14:32N 41°32' W 070°36'10 7.9
2015-Jul-14 13:18N 41°24' W 070°30'10 0.7
2015-Jul-13 22:12N 41°33' W 070°36'912.3
2015-Jul-13 21:29N 41°26' W 070°30'1 0.6
2015-Jul-13 20:33N 41°26' W 070°30'8 8.2
2015-Jul-13 19:33N 41°33' W 070°36'1010.0
2015-Jul-13 18:32N 41°23' W 070°31'1010.2
2015-Jul-13 17:32N 41°33' W 070°36'8 7.7
2015-Jul-13 16:33N 41°27' W 070°31'0 0.4
2015-Jul-13 15:33N 41°27' W 070°31'7 7.0
2015-Jul-13 14:33N 41°32' W 070°36'10 8.8
2015-Jul-13 13:24N 41°23' W 070°30'1012.2
2015-Jul-13 12:32N 41°33' W 070°36'0 0.0
2015-Jul-13 00:16N 41°33' W 070°36'912.2
2015-Jul-12 23:33N 41°26' W 070°30'0 0.2
2015-Jul-12 22:33N 41°26' W 070°30'8 5.5
2015-Jul-12 21:07N 41°32' W 070°36'7 4.3
2015-Jul-12 19:32N 41°27' W 070°31'7 7.7
2015-Jul-12 18:33N 41°33' W 070°36'10 9.3
2015-Jul-12 17:28N 41°23' W 070°31'1011.1
2015-Jul-12 16:33N 41°32' W 070°36'8 7.8
2015-Jul-12 15:33N 41°27' W 070°30'1 0.7
2015-Jul-12 14:33N 41°27' W 070°31'8 7.5
2015-Jul-12 13:33N 41°33' W 070°36'5 0.1
2015-Jul-10 19:20N 41°29' W 070°33'5 0.2
2015-Jul-09 22:09N 41°33' W 070°36'814.1
2015-Jul-09 21:33N 41°26' W 070°30'5 4.0
2015-Jul-09 20:19N 41°30' W 070°34'2 2.2
2015-Jul-09 19:33N 41°31' W 070°35'2 0.7
2015-Jul-09 17:06N 41°32' W 070°36'814.7
2015-Jul-09 16:33N 41°26' W 070°30'5 3.8
2015-Jul-09 15:17N 41°30' W 070°34'3 4.6
2015-Jul-09 14:33N 41°32' W 070°36'9 0.5
2015-Jul-08 21:29N 41°25' W 070°29'8 4.4
2015-Jul-08 19:33N 41°32' W 070°36'0 0.2
2015-Jul-08 17:07N 41°32' W 070°36'814.6
2015-Jul-08 16:33N 41°26' W 070°30'1 0.0
2015-Jul-07 21:33N 41°26' W 070°30'0 0.1
2015-Jul-07 20:33N 41°26' W 070°30'7 6.7
2015-Jul-07 19:31N 41°32' W 070°36'10 8.5
2015-Jul-07 18:23N 41°23' W 070°31'1012.4
2015-Jul-07 17:33N 41°33' W 070°36'  

Dump ship's entire track history